Time;durP1;ratioP1;P1;durP2;ratioP2;P2;SDS_P1;SDS_P2;PMS_P1;PMS_P2;Temp;Humidity;BMP_temperature;BMP_pressure;BME280_temperature;BME280_humidity;BME280_pressure;Samples;Min_cycle;Max_cycle;Signal;HPM_P1;HPM_P2
2022/03/29 00:02:13;;;;;;;13.60;9.37;;;15.30;41.90;;;;;;5132463;27;21268;-83
2022/03/29 00:04:41;;;;;;;12.47;8.50;;;15.20;42.00;;;;;;5135058;27;20456;-82
2022/03/29 00:07:08;;;;;;;15.57;8.83;;;15.20;42.30;;;;;;5135624;27;20450;-83
2022/03/29 00:09:35;;;;;;;15.60;9.70;;;15.20;42.30;;;;;;5134595;27;20472;-84
2022/03/29 00:12:02;;;;;;;16.90;9.23;;;15.20;42.20;;;;;;5135324;27;20470;-80
2022/03/29 00:14:29;;;;;;;15.87;8.83;;;15.10;42.30;;;;;;5132527;27;20453;-83
2022/03/29 00:16:56;;;;;;;15.03;9.90;;;15.10;42.40;;;;;;5138301;27;20457;-83
2022/03/29 00:19:24;;;;;;;15.03;9.60;;;15.10;42.50;;;;;;5134046;27;20983;-83
2022/03/29 00:21:53;;;;;;;13.50;9.10;;;15.10;42.60;;;;;;5135638;27;20441;-83
2022/03/29 00:24:20;;;;;;;18.00;8.93;;;15.00;42.40;;;;;;5131500;27;20476;-84
2022/03/29 00:26:47;;;;;;;14.70;9.40;;;15.00;42.50;;;;;;5133720;27;20810;-80
2022/03/29 00:29:14;;;;;;;12.73;8.40;;;15.00;42.60;;;;;;5133433;27;20477;-82
2022/03/29 00:31:41;;;;;;;13.03;8.93;;;15.00;42.60;;;;;;5134523;27;20485;-84
2022/03/29 00:34:08;;;;;;;12.63;8.20;;;15.00;42.70;;;;;;5135848;27;20442;-83
2022/03/29 00:36:35;;;;;;;17.93;7.60;;;15.00;42.50;;;;;;5136192;27;20461;-82
2022/03/29 00:39:04;;;;;;;11.63;7.83;;;15.00;42.70;;;;;;5116183;27;20833;-81
2022/03/29 00:41:31;;;;;;;13.50;8.53;;;14.90;42.80;;;;;;5131168;27;20452;-83
2022/03/29 00:43:58;;;;;;;17.37;8.87;;;14.90;43.10;;;;;;5133574;27;20937;-81
2022/03/29 00:46:25;;;;;;;15.00;8.50;;;14.90;43.40;;;;;;5133309;27;20448;-83
2022/03/29 00:48:52;;;;;;;18.67;8.73;;;14.90;43.40;;;;;;5132826;27;20461;-82
2022/03/29 00:51:19;;;;;;;15.00;8.40;;;14.80;43.60;;;;;;5136539;27;20474;-84
2022/03/29 00:53:47;;;;;;;11.87;8.97;;;14.80;43.60;;;;;;5135541;27;20971;-84
2022/03/29 00:56:17;;;;;;;13.77;8.63;;;14.80;43.80;;;;;;5132247;27;20496;-83
2022/03/29 00:58:44;;;;;;;14.93;9.13;;;14.80;43.90;;;;;;5134337;27;20468;-84
2022/03/29 01:01:12;;;;;;;12.97;7.40;;;14.70;43.80;;;;;;5135204;27;20460;-82
2022/03/29 01:03:42;;;;;;;13.87;7.87;;;14.70;44.60;;;;;;5133586;27;20468;-83
2022/03/29 01:06:09;;;;;;;10.27;7.13;;;14.40;45.90;;;;;;5133258;27;20457;-84
2022/03/29 01:08:36;;;;;;;9.33;6.87;;;14.40;45.70;;;;;;5135982;27;20869;-84
2022/03/29 01:11:05;;;;;;;12.47;7.00;;;14.50;45.30;;;;;;5133392;27;20482;-82
2022/03/29 01:13:34;;;;;;;9.40;7.77;;;14.50;45.10;;;;;;5133588;27;20449;-84
2022/03/29 01:17:38;;;;;;;13.67;8.00;;;14.50;44.80;;;;;;5133737;27;20976;-85
2022/03/29 01:18:48;;;;;;;11.67;7.57;;;14.50;44.40;;;;;;5132622;27;20565;-83
2022/03/29 01:21:17;;;;;;;14.27;7.80;;;14.50;44.30;;;;;;5134085;27;21070;-83
2022/03/29 01:23:48;;;;;;;16.17;7.90;;;14.50;44.30;;;;;;5133614;27;20445;-82
2022/03/29 01:26:16;;;;;;;17.47;8.53;;;14.50;44.40;;;;;;5134429;27;20458;-83
2022/03/29 01:28:44;;;;;;;14.13;8.00;;;14.50;44.50;;;;;;5130511;27;21008;-82
2022/03/29 01:31:13;;;;;;;18.07;8.50;;;14.50;44.60;;;;;;5130695;27;20466;-85
2022/03/29 01:33:41;;;;;;;14.80;8.10;;;14.50;44.70;;;;;;5115795;27;20457;-81
2022/03/29 01:36:08;;;;;;;20.10;7.57;;;14.40;45.10;;;;;;5133324;27;20445;-83
2022/03/29 01:38:35;;;;;;;25.00;8.90;;;14.40;45.10;;;;;;5132441;27;21002;-82
2022/03/29 01:41:05;;;;;;;11.70;8.27;;;14.40;45.00;;;;;;5132026;27;20473;-81
2022/03/29 01:43:32;;;;;;;14.20;7.27;;;14.40;45.00;;;;;;5133862;27;20449;-85
2022/03/29 01:45:59;;;;;;;15.53;8.77;;;14.40;44.80;;;;;;5122004;27;20457;-82
2022/03/29 01:48:27;;;;;;;18.83;7.77;;;14.40;44.90;;;;;;5114239;27;20442;-84
2022/03/29 01:50:54;;;;;;;12.60;7.43;;;14.40;45.00;;;;;;5132735;27;21278;-84
2022/03/29 01:53:23;;;;;;;14.23;7.47;;;14.30;45.30;;;;;;5131625;27;20455;-82
2022/03/29 01:55:50;;;;;;;12.50;7.83;;;14.30;45.50;;;;;;5132518;27;20529;-83
2022/03/29 01:58:18;;;;;;;13.33;7.60;;;14.30;45.60;;;;;;5131586;27;20462;-85
2022/03/29 02:00:45;;;;;;;12.70;7.80;;;14.20;45.70;;;;;;5132472;27;20485;-82
2022/03/29 02:03:12;;;;;;;10.77;7.53;;;14.20;45.60;;;;;;5131916;27;20454;-82
2022/03/29 02:05:39;;;;;;;11.70;7.07;;;14.20;45.50;;;;;;5131008;27;20478;-83
2022/03/29 02:08:07;;;;;;;16.43;6.97;;;14.20;45.50;;;;;;5133213;27;20453;-83
2022/03/29 02:10:34;;;;;;;10.43;7.73;;;14.20;45.50;;;;;;5130385;27;20573;-83
2022/03/29 02:13:01;;;;;;;12.63;7.77;;;14.20;45.60;;;;;;5130838;27;20453;-84
2022/03/29 02:15:30;;;;;;;11.30;6.87;;;14.10;45.60;;;;;;5130979;27;20445;-82
2022/03/29 02:17:57;;;;;;;10.33;7.37;;;14.10;45.60;;;;;;5132873;27;21025;-82
2022/03/29 02:20:26;;;;;;;13.60;8.33;;;14.10;45.50;;;;;;5116293;27;20480;-84
2022/03/29 02:22:52;;;;;;;14.70;7.57;;;14.10;45.50;;;;;;5133059;27;20441;-83
2022/03/29 02:25:20;;;;;;;10.90;7.20;;;14.00;45.50;;;;;;5135697;27;20953;-84
2022/03/29 02:27:47;;;;;;;12.37;8.00;;;14.00;45.20;;;;;;5132896;27;20458;-82
2022/03/29 02:30:15;;;;;;;12.00;8.33;;;13.90;45.50;;;;;;5133119;27;20470;-84
2022/03/29 02:32:44;;;;;;;13.70;7.80;;;13.90;45.60;;;;;;5131584;27;20985;-84
2022/03/29 02:35:12;;;;;;;10.63;7.83;;;13.80;45.80;;;;;;5132665;27;20448;-82
2022/03/29 02:37:39;;;;;;;13.50;7.47;;;13.80;45.40;;;;;;5132456;27;21075;-84
2022/03/29 02:40:09;;;;;;;13.70;7.20;;;13.80;45.80;;;;;;5129726;27;20480;-83
2022/03/29 02:42:41;;;;;;;13.33;8.00;;;13.70;46.10;;;;;;5131558;27;20988;-82
2022/03/29 02:45:09;;;;;;;12.83;7.40;;;13.80;46.20;;;;;;5129243;27;20449;-82
2022/03/29 02:47:36;;;;;;;11.73;8.47;;;13.80;46.10;;;;;;5133184;27;20449;-84
2022/03/29 02:50:05;;;;;;;13.37;8.03;;;13.80;45.90;;;;;;5132686;27;20477;-82
2022/03/29 02:52:33;;;;;;;11.57;7.70;;;13.80;45.80;;;;;;5131407;27;20572;-83
2022/03/29 02:54:59;;;;;;;13.33;6.70;;;13.70;45.90;;;;;;5128419;27;20460;-82
2022/03/29 02:57:26;;;;;;;12.90;8.70;;;13.70;46.10;;;;;;5131479;27;20449;-83
2022/03/29 02:59:53;;;;;;;10.80;7.20;;;13.70;46.00;;;;;;5131694;27;20461;-81
2022/03/29 03:02:22;;;;;;;15.20;8.43;;;13.70;45.90;;;;;;5131489;27;20476;-82
2022/03/29 03:04:49;;;;;;;13.37;8.00;;;13.70;46.00;;;;;;5134725;27;20472;-84
2022/03/29 03:07:17;;;;;;;13.40;7.70;;;13.70;46.10;;;;;;5133375;27;20450;-82
2022/03/29 03:09:44;;;;;;;10.17;7.30;;;13.70;46.00;;;;;;5131028;27;20480;-82
2022/03/29 03:12:11;;;;;;;11.93;6.93;;;13.60;45.90;;;;;;5118273;27;20880;-83
2022/03/29 03:14:38;;;;;;;8.43;7.13;;;13.60;46.00;;;;;;5131079;27;20902;-82
2022/03/29 03:17:05;;;;;;;12.10;7.70;;;13.60;46.00;;;;;;5129141;27;20452;-84
2022/03/29 03:19:32;;;;;;;10.97;8.33;;;13.60;46.20;;;;;;5124337;27;20473;-84
2022/03/29 03:21:59;;;;;;;14.87;8.50;;;13.50;46.50;;;;;;5131463;27;20449;-85
2022/03/29 03:24:27;;;;;;;13.03;7.93;;;13.50;46.50;;;;;;5131701;27;20556;-83
2022/03/29 03:26:55;;;;;;;18.20;7.83;;;13.40;46.90;;;;;;5129909;27;20446;-82
2022/03/29 03:29:22;;;;;;;13.20;8.23;;;13.30;47.00;;;;;;5130722;27;20477;-84
2022/03/29 03:31:49;;;;;;;12.80;8.17;;;13.30;46.80;;;;;;5129354;27;20488;-81
2022/03/29 03:34:16;;;;;;;18.07;8.27;;;13.30;46.80;;;;;;5130056;27;20454;-84
2022/03/29 03:36:43;;;;;;;13.37;8.70;;;13.30;46.70;;;;;;5112896;27;20452;-82
2022/03/29 03:39:10;;;;;;;12.30;7.80;;;13.30;46.70;;;;;;5129926;27;20481;-83
2022/03/29 03:41:40;;;;;;;12.90;7.67;;;13.30;47.30;;;;;;5133446;27;20449;-83
2022/03/29 03:44:07;;;;;;;12.50;8.37;;;13.30;46.50;;;;;;5128289;27;20461;-82
2022/03/29 03:46:34;;;;;;;11.07;7.70;;;13.30;46.40;;;;;;5131970;27;20448;-82
2022/03/29 03:49:01;;;;;;;10.53;7.60;;;13.30;46.40;;;;;;5130411;27;20611;-81
2022/03/29 03:51:28;;;;;;;15.50;8.47;;;13.20;46.50;;;;;;5131513;27;21126;-82
2022/03/29 03:53:55;;;;;;;16.33;8.90;;;13.20;46.90;;;;;;5129720;27;20449;-84
2022/03/29 03:56:22;;;;;;;14.27;8.30;;;13.20;46.70;;;;;;5132310;27;20535;-83
2022/03/29 03:58:51;;;;;;;11.63;7.50;;;13.20;46.50;;;;;;5130883;27;20465;-81
2022/03/29 04:01:18;;;;;;;14.60;8.20;;;13.20;46.40;;;;;;5127380;27;20471;-82
2022/03/29 04:03:45;;;;;;;16.47;8.10;;;13.20;46.30;;;;;;5130438;27;20469;-83
2022/03/29 04:06:12;;;;;;;14.80;8.97;;;13.20;46.40;;;;;;5129953;27;21331;-83
2022/03/29 04:08:39;;;;;;;13.60;7.93;;;13.10;46.20;;;;;;5131831;27;20949;-82
2022/03/29 04:11:06;;;;;;;12.50;7.70;;;12.80;47.00;;;;;;5128782;27;20451;-84
2022/03/29 04:13:34;;;;;;;15.07;8.60;;;12.80;47.20;;;;;;5129852;27;20874;-83
2022/03/29 04:16:04;;;;;;;17.10;8.33;;;12.90;47.10;;;;;;5129836;27;20453;-82
2022/03/29 04:18:30;;;;;;;14.90;9.07;;;13.00;47.00;;;;;;5111077;27;20831;-83
2022/03/29 04:20:58;;;;;;;15.67;9.27;;;13.00;46.90;;;;;;5107903;27;20460;-82
2022/03/29 04:23:25;;;;;;;13.63;7.70;;;13.00;46.70;;;;;;5120557;27;20821;-83
2022/03/29 04:25:52;;;;;;;14.10;8.50;;;13.00;47.20;;;;;;5106901;27;20537;-85
2022/03/29 04:28:19;;;;;;;10.13;8.43;;;13.00;46.60;;;;;;5125547;27;21008;-84
2022/03/29 04:30:47;;;;;;;13.03;9.20;;;13.00;46.40;;;;;;5133757;27;20557;-84
2022/03/29 04:33:15;;;;;;;17.53;9.40;;;13.00;46.60;;;;;;5130452;27;20553;-83
2022/03/29 04:35:42;;;;;;;16.50;9.73;;;13.00;46.60;;;;;;5132114;27;20468;-82
2022/03/29 04:38:09;;;;;;;18.00;11.47;;;13.00;46.70;;;;;;5103905;27;20604;-82
2022/03/29 04:40:37;;;;;;;17.43;11.57;;;13.00;46.70;;;;;;5133421;27;20473;-85
2022/03/29 04:43:04;;;;;;;21.67;11.57;;;12.90;46.70;;;;;;5130259;27;20453;-82
2022/03/29 04:45:31;;;;;;;15.83;10.97;;;13.00;46.90;;;;;;5131489;27;21259;-83
2022/03/29 04:47:58;;;;;;;12.63;9.30;;;12.90;46.80;;;;;;5131645;27;20457;-84
2022/03/29 04:50:27;;;;;;;14.30;8.70;;;12.90;46.90;;;;;;5132584;27;20458;-83
2022/03/29 04:52:54;;;;;;;14.00;10.27;;;12.90;47.10;;;;;;5131039;27;20477;-83
2022/03/29 04:55:21;;;;;;;13.13;9.20;;;12.90;47.20;;;;;;5131987;27;20449;-83
2022/03/29 04:57:49;;;;;;;12.93;8.90;;;12.90;47.60;;;;;;5131256;27;20442;-83
2022/03/29 05:00:20;;;;;;;15.70;8.20;;;12.80;47.60;;;;;;5131611;27;20477;-84
2022/03/29 05:02:48;;;;;;;15.40;8.67;;;12.80;47.60;;;;;;5130398;27;20460;-83
2022/03/29 05:05:15;;;;;;;12.97;8.77;;;12.80;47.60;;;;;;5129162;27;21233;-82
2022/03/29 05:07:44;;;;;;;12.13;8.07;;;12.80;47.60;;;;;;5132245;27;20449;-83
2022/03/29 05:10:13;;;;;;;13.73;7.50;;;12.80;48.20;;;;;;5130788;27;20461;-83
2022/03/29 05:12:41;;;;;;;15.23;8.40;;;12.80;47.70;;;;;;5131493;27;20473;-83
2022/03/29 05:15:09;;;;;;;16.60;8.63;;;12.80;47.80;;;;;;5130635;27;20452;-84
2022/03/29 05:17:36;;;;;;;13.67;7.87;;;12.90;48.10;;;;;;5131493;27;20919;-82
2022/03/29 05:20:04;;;;;;;16.47;8.40;;;12.80;48.10;;;;;;5127602;27;20526;-82
2022/03/29 05:22:31;;;;;;;16.00;9.13;;;12.90;48.20;;;;;;5129284;27;20995;-84
2022/03/29 05:24:59;;;;;;;11.07;7.83;;;12.90;48.20;;;;;;5133095;27;20448;-85
2022/03/29 05:27:26;;;;;;;13.00;8.73;;;12.90;48.10;;;;;;5129446;27;20508;-84
2022/03/29 05:29:54;;;;;;;11.50;8.10;;;12.90;48.20;;;;;;5132512;27;20503;-85
2022/03/29 05:32:21;;;;;;;14.47;8.00;;;12.90;48.50;;;;;;5129827;27;20645;-83
2022/03/29 05:34:48;;;;;;;12.83;8.07;;;12.90;48.80;;;;;;5130201;27;20441;-83
2022/03/29 05:37:15;;;;;;;13.57;8.60;;;12.90;49.30;;;;;;5129653;27;20453;-83
2022/03/29 05:39:43;;;;;;;15.03;9.13;;;12.80;49.40;;;;;;5131081;27;20999;-84
2022/03/29 05:42:12;;;;;;;12.80;8.90;;;12.80;49.70;;;;;;5130304;27;20466;-83
2022/03/29 05:44:39;;;;;;;13.50;8.30;;;12.80;49.90;;;;;;5127913;27;20450;-82
2022/03/29 05:49:52;;;;;;;14.00;8.70;;;12.80;49.80;;;;;;5129199;27;20610;-84
2022/03/29 05:52:21;;;;;;;11.10;8.27;;;12.80;49.70;;;;;;5127654;27;20474;-84
2022/03/29 05:54:48;;;;;;;17.03;9.53;;;12.80;49.80;;;;;;5129482;27;20449;-83
2022/03/29 05:57:17;;;;;;;16.03;9.10;;;12.80;49.90;;;;;;5129194;27;21512;-84
2022/03/29 05:59:45;;;;;;;11.07;8.67;;;12.70;50.60;;;;;;5128973;27;21008;-83
2022/03/29 06:02:12;;;;;;;18.37;9.87;;;12.80;50.80;;;;;;5127261;27;20556;-85
2022/03/29 06:04:40;;;;;;;12.90;8.50;;;12.90;50.90;;;;;;5131720;27;20446;-83
2022/03/29 06:07:08;;;;;;;16.20;9.07;;;12.90;50.80;;;;;;5127248;27;20445;-85
2022/03/29 06:09:36;;;;;;;13.17;8.40;;;12.90;50.90;;;;;;5128951;27;20495;-84
2022/03/29 06:12:05;;;;;;;15.93;8.73;;;12.90;51.50;;;;;;5129330;27;20446;-81
2022/03/29 06:14:33;;;;;;;12.47;8.53;;;13.00;50.70;;;;;;5128953;27;20449;-83
2022/03/29 06:17:01;;;;;;;15.73;10.00;;;13.10;50.60;;;;;;5128782;27;20482;-84
2022/03/29 06:19:28;;;;;;;13.20;9.07;;;13.10;50.30;;;;;;5129511;27;20477;-83
2022/03/29 06:21:55;;;;;;;139.80;59.67;;;13.10;50.30;;;;;;5130251;27;20563;-85
2022/03/29 06:24:22;;;;;;;72.53;37.63;;;13.10;50.50;;;;;;5131232;27;20452;-82
2022/03/29 06:26:49;;;;;;;36.77;20.20;;;13.00;50.70;;;;;;5130938;27;20452;-84
2022/03/29 06:29:16;;;;;;;21.50;12.57;;;13.00;50.60;;;;;;5131505;27;20470;-83
2022/03/29 06:31:44;;;;;;;16.03;11.50;;;13.10;50.50;;;;;;5129921;27;20788;-83
2022/03/29 06:34:11;;;;;;;14.43;9.57;;;13.10;50.60;;;;;;5128344;27;20554;-84
2022/03/29 06:36:38;;;;;;;12.20;9.00;;;13.00;50.60;;;;;;5129492;27;20525;-83
2022/03/29 06:39:07;;;;;;;17.63;10.80;;;13.00;50.90;;;;;;5127610;27;21112;-83
2022/03/29 06:41:35;;;;;;;27.53;19.30;;;13.10;50.60;;;;;;5132940;27;20527;-83
2022/03/29 06:44:02;;;;;;;21.33;15.67;;;12.90;50.90;;;;;;5129296;27;20531;-84
2022/03/29 06:46:29;;;;;;;27.97;13.90;;;12.60;51.40;;;;;;5111283;27;21047;-84
2022/03/29 06:48:58;;;;;;;16.87;11.20;;;12.60;51.70;;;;;;5131458;27;20514;-84
2022/03/29 06:51:26;;;;;;;18.30;10.80;;;12.70;51.80;;;;;;5131840;27;20473;-83
2022/03/29 06:53:53;;;;;;;18.83;12.07;;;12.90;51.40;;;;;;5126543;27;20580;-84
2022/03/29 06:56:20;;;;;;;22.07;10.70;;;13.10;51.10;;;;;;5129286;27;20474;-84
2022/03/29 06:58:47;;;;;;;14.73;11.17;;;13.20;50.40;;;;;;5108245;27;20841;-80
2022/03/29 07:01:14;;;;;;;16.60;10.93;;;13.30;50.20;;;;;;5128366;27;20450;-84
2022/03/29 07:03:41;;;;;;;13.60;9.93;;;13.30;50.20;;;;;;5131310;27;20450;-84
2022/03/29 07:06:10;;;;;;;18.07;11.80;;;13.30;50.30;;;;;;5112514;27;20453;-83
2022/03/29 07:11:15;;;;;;;17.73;12.30;;;13.40;50.00;;;;;;5131008;27;20441;-83
2022/03/29 07:11:24;;;;;;;17.50;12.33;;;13.20;50.50;;;;;;5130873;27;20445;-84
2022/03/29 07:13:51;;;;;;;17.10;11.43;;;13.00;50.80;;;;;;5134573;27;20484;-84
2022/03/29 07:16:18;;;;;;;19.93;11.20;;;13.10;50.80;;;;;;5131395;27;21227;-83
2022/03/29 07:18:45;;;;;;;19.87;10.60;;;12.90;51.00;;;;;;5115187;27;21005;-83
2022/03/29 07:21:14;;;;;;;17.20;10.30;;;13.00;50.80;;;;;;5129848;27;20461;-82
2022/03/29 07:23:41;;;;;;;19.23;10.43;;;13.10;50.70;;;;;;5131116;27;20457;-82
2022/03/29 07:26:08;;;;;;;15.70;11.13;;;13.30;50.10;;;;;;5130900;27;20541;-82
2022/03/29 07:28:35;;;;;;;18.93;10.70;;;13.40;49.70;;;;;;5131340;27;20449;-83
2022/03/29 07:31:03;;;;;;;17.60;11.73;;;13.40;49.50;;;;;;5132661;27;20522;-86
2022/03/29 07:33:31;;;;;;;18.70;9.83;;;13.50;49.50;;;;;;5129354;27;20487;-83
2022/03/29 07:35:58;;;;;;;14.03;9.40;;;13.60;48.60;;;;;;5112893;27;20573;-83
2022/03/29 07:38:26;;;;;;;16.00;11.30;;;13.50;48.50;;;;;;5111867;27;20772;-85
2022/03/29 07:40:53;;;;;;;15.30;9.50;;;13.60;48.40;;;;;;5127905;27;20471;-85
2022/03/29 07:43:23;;;;;;;17.33;11.07;;;13.70;48.30;;;;;;5130066;27;20442;-83
2022/03/29 07:45:50;;;;;;;16.93;11.70;;;13.70;48.60;;;;;;5128681;27;20473;-83
2022/03/29 07:48:17;;;;;;;19.03;11.93;;;13.70;48.80;;;;;;5113836;27;20449;-84
2022/03/29 07:50:44;;;;;;;22.17;11.70;;;13.70;48.50;;;;;;5131663;27;20842;-83
2022/03/29 07:53:11;;;;;;;26.73;12.53;;;14.00;48.40;;;;;;5130185;27;20470;-83
2022/03/29 07:55:40;;;;;;;19.60;13.07;;;14.10;48.30;;;;;;5114303;27;20477;-83
2022/03/29 07:58:08;;;;;;;32.67;15.20;;;14.10;48.50;;;;;;5130447;27;20452;-83
2022/03/29 08:00:35;;;;;;;22.47;14.63;;;14.00;49.00;;;;;;5128886;27;20469;-82
2022/03/29 08:03:05;;;;;;;23.87;16.77;;;14.20;48.90;;;;;;5127556;27;20459;-83
2022/03/29 08:05:32;;;;;;;69.57;29.97;;;14.40;48.70;;;;;;5130326;27;20449;-85
2022/03/29 08:08:00;;;;;;;29.43;16.50;;;14.50;48.30;;;;;;5131569;27;20437;-84
2022/03/29 08:10:28;;;;;;;28.73;14.60;;;14.60;48.10;;;;;;5131584;27;21240;-84
2022/03/29 08:12:57;;;;;;;21.93;14.37;;;14.70;48.10;;;;;;5132154;27;20469;-84
2022/03/29 08:15:24;;;;;;;19.23;13.43;;;14.80;47.90;;;;;;5131363;27;21737;-84
2022/03/29 08:17:52;;;;;;;16.27;12.43;;;14.90;47.80;;;;;;5133289;27;20451;-83
2022/03/29 08:20:19;;;;;;;18.07;13.70;;;14.90;47.70;;;;;;5129901;27;20469;-85
2022/03/29 08:22:46;;;;;;;22.10;12.23;;;15.00;47.70;;;;;;5133303;27;20442;-84
2022/03/29 08:25:15;;;;;;;18.93;12.73;;;15.10;47.70;;;;;;5130275;27;20589;-84
2022/03/29 08:27:42;;;;;;;17.53;12.10;;;15.20;47.60;;;;;;5131663;27;20787;-84
2022/03/29 08:30:12;;;;;;;21.83;12.00;;;15.30;47.00;;;;;;5133140;27;21187;-84
2022/03/29 08:32:39;;;;;;;19.20;14.57;;;15.40;46.70;;;;;;5133325;27;20441;-83
2022/03/29 08:35:08;;;;;;;24.40;13.43;;;15.50;46.80;;;;;;5133869;27;20467;-85
2022/03/29 08:37:36;;;;;;;21.10;14.07;;;15.50;46.50;;;;;;5134280;27;20453;-84
2022/03/29 08:40:04;;;;;;;15.93;11.00;;;15.60;46.80;;;;;;5133797;27;20469;-84
2022/03/29 08:42:32;;;;;;;21.20;13.00;;;15.70;47.10;;;;;;5134958;27;20488;-84
2022/03/29 08:45:00;;;;;;;17.80;12.87;;;15.60;47.80;;;;;;5134049;27;20441;-85
2022/03/29 08:47:28;;;;;;;20.33;12.70;;;15.60;47.80;;;;;;5136237;27;20542;-83
2022/03/29 08:49:55;;;;;;;20.67;12.27;;;15.50;47.80;;;;;;5134430;27;20986;-84
2022/03/29 08:52:22;;;;;;;19.33;10.87;;;15.50;47.90;;;;;;5133481;27;20460;-85
2022/03/29 08:54:50;;;;;;;20.17;11.63;;;15.50;47.50;;;;;;5113812;27;20550;-84
2022/03/29 08:57:17;;;;;;;18.47;12.23;;;15.50;47.70;;;;;;5133802;27;20449;-85
2022/03/29 08:59:44;;;;;;;17.87;12.37;;;15.60;47.40;;;;;;5135571;27;20469;-84
2022/03/29 09:02:12;;;;;;;22.00;11.60;;;15.90;47.20;;;;;;5131952;27;20491;-84
2022/03/29 09:04:41;;;;;;;19.13;12.23;;;16.10;46.40;;;;;;5132400;27;20444;-85
2022/03/29 09:07:08;;;;;;;18.67;10.97;;;16.10;46.30;;;;;;5115745;27;20987;-84
2022/03/29 09:09:36;;;;;;;16.37;12.40;;;16.30;46.40;;;;;;5132292;27;20453;-84
2022/03/29 09:12:13;;;;;;;19.80;11.07;;;16.70;46.70;;;;;;5134263;27;20445;-85
2022/03/29 09:14:55;;;;;;;20.97;12.40;;;16.90;45.30;;;;;;5131238;27;20522;-84
2022/03/29 09:17:27;;;;;;;20.33;10.87;;;16.90;45.00;;;;;;5134791;27;20469;-86
2022/03/29 09:19:56;;;;;;;17.33;11.03;;;17.00;45.10;;;;;;5132342;27;20476;-85
2022/03/29 09:22:39;;;;;;;17.50;12.00;;;17.00;44.90;;;;;;5133879;27;20454;-84
2022/03/29 09:25:07;;;;;;;21.90;11.17;;;17.20;44.80;;;;;;5109578;27;20441;-82
2022/03/29 09:27:56;;;;;;;24.73;11.70;;;17.30;44.60;;;;;;5132095;27;20527;-83
2022/03/29 09:30:25;;;;;;;21.53;11.40;;;17.40;44.10;;;;;;5131181;27;20984;-83
2022/03/29 09:32:57;;;;;;;28.10;12.40;;;17.40;43.80;;;;;;5132339;27;20442;-84
2022/03/29 09:35:26;;;;;;;20.33;12.53;;;17.70;43.60;;;;;;5129097;27;20469;-82
2022/03/29 09:37:53;;;;;;;18.97;11.10;;;17.80;43.10;;;;;;5132715;27;20657;-84
2022/03/29 09:40:21;;;;;;;20.73;12.00;;;17.90;42.60;;;;;;5130682;27;20505;-85
2022/03/29 09:43:10;;;;;;;27.60;12.33;;;18.00;42.50;;;;;;5132660;27;20557;-84
2022/03/29 09:45:46;;;;;;;24.73;12.03;;;18.20;42.40;;;;;;5131768;27;20442;-84
2022/03/29 09:48:24;;;;;;;23.00;11.90;;;18.40;42.10;;;;;;5130286;27;20448;-83
2022/03/29 09:50:55;;;;;;;22.10;12.57;;;18.20;41.70;;;;;;5131416;27;20483;-84
2022/03/29 09:53:40;;;;;;;22.93;12.80;;;18.40;41.60;;;;;;5130495;27;21027;-83
2022/03/29 09:56:09;;;;;;;23.43;13.17;;;18.60;40.90;;;;;;5129886;27;20480;-83
2022/03/29 09:58:36;;;;;;;21.80;11.83;;;18.70;40.50;;;;;;5134112;27;20538;-85
2022/03/29 10:01:05;;;;;;;27.00;14.73;;;18.70;40.00;;;;;;5129832;27;20450;-83
2022/03/29 10:03:34;;;;;;;19.83;12.63;;;18.70;41.10;;;;;;5131792;27;20564;-86
2022/03/29 10:06:05;;;;;;;27.00;13.83;;;18.90;41.70;;;;;;5130055;27;20812;-84
2022/03/29 10:11:21;;;;;;;32.03;13.50;;;19.40;40.00;;;;;;5133035;27;20437;-84
2022/03/29 10:13:49;;;;;;;30.90;14.90;;;19.60;39.40;;;;;;5132994;27;20544;-84
2022/03/29 10:16:17;;;;;;;24.10;12.90;;;19.80;39.50;;;;;;5129956;27;20465;-85
2022/03/29 10:18:45;;;;;;;26.93;14.40;;;20.10;37.90;;;;;;5134130;27;20848;-83
2022/03/29 10:21:15;;;;;;;30.47;13.87;;;20.10;37.60;;;;;;5133983;27;20460;-85
2022/03/29 10:23:45;;;;;;;29.30;14.83;;;20.20;37.60;;;;;;5134779;27;20544;-84
2022/03/29 10:26:17;;;;;;;21.27;13.33;;;20.50;37.90;;;;;;5130568;27;20438;-83
2022/03/29 10:28:46;;;;;;;27.63;16.03;;;20.60;37.10;;;;;;5132730;27;20472;-83
2022/03/29 10:31:30;;;;;;;35.17;16.17;;;20.80;36.60;;;;;;5131422;27;20454;-84
2022/03/29 10:34:16;;;;;;;29.20;16.57;;;20.30;36.10;;;;;;5128387;27;20475;-82
2022/03/29 10:37:07;;;;;;;25.90;15.63;;;20.20;37.20;;;;;;5130583;27;20710;-83
2022/03/29 10:39:53;;;;;;;26.37;15.90;;;20.30;37.70;;;;;;5129657;27;20473;-83
2022/03/29 10:42:37;;;;;;;28.17;15.60;;;20.40;37.10;;;;;;5129260;27;20449;-84
2022/03/29 10:45:16;;;;;;;27.90;15.47;;;20.60;37.90;;;;;;5128657;27;20444;-81
2022/03/29 10:47:45;;;;;;;27.93;16.90;;;20.90;37.00;;;;;;5129119;27;20440;-85
2022/03/29 10:50:14;;;;;;;35.17;15.30;;;21.20;36.20;;;;;;5114885;27;20833;-84
2022/03/29 10:52:44;;;;;;;30.87;15.50;;;21.30;35.40;;;;;;5130706;27;20458;-85
2022/03/29 10:55:29;;;;;;;25.90;14.57;;;21.40;35.50;;;;;;5128174;27;20465;-84
2022/03/29 10:58:05;;;;;;;31.03;17.77;;;21.30;35.80;;;;;;5129009;27;20445;-83
2022/03/29 11:00:33;;;;;;;25.33;15.60;;;21.30;36.30;;;;;;5113303;27;20464;-84
2022/03/29 11:03:12;;;;;;;32.50;15.90;;;21.60;36.40;;;;;;5131529;27;20468;-84
2022/03/29 11:06:04;;;;;;;30.00;17.07;;;21.60;35.60;;;;;;5131603;27;21166;-85
2022/03/29 11:08:34;;;;;;;33.10;15.80;;;21.40;34.90;;;;;;5134526;27;20516;-84
2022/03/29 11:11:01;;;;;;;29.67;15.50;;;21.40;35.90;;;;;;5131691;27;20848;-84
2022/03/29 11:13:30;;;;;;;26.40;15.07;;;21.50;35.40;;;;;;5130147;27;20804;-85
2022/03/29 11:16:02;;;;;;;34.73;17.20;;;21.10;35.40;;;;;;5131604;27;20452;-84
2022/03/29 11:18:50;;;;;;;38.27;16.97;;;21.00;35.40;;;;;;5130779;27;20445;-85
2022/03/29 11:21:44;;;;;;;32.07;15.07;;;21.40;35.30;;;;;;5130789;27;20690;-84
2022/03/29 11:24:15;;;;;;;24.57;14.80;;;21.50;35.30;;;;;;5131651;27;20434;-84
2022/03/29 11:26:57;;;;;;;27.03;14.57;;;21.40;35.00;;;;;;5132426;27;20945;-83
2022/03/29 11:29:25;;;;;;;32.70;17.00;;;21.50;35.30;;;;;;5132016;27;21753;-83
2022/03/29 11:31:52;;;;;;;41.00;17.00;;;21.60;34.60;;;;;;5131391;27;20477;-84
2022/03/29 11:34:19;;;;;;;31.30;15.83;;;21.70;34.50;;;;;;5132733;27;20879;-83
2022/03/29 11:36:46;;;;;;;26.27;16.43;;;21.80;33.90;;;;;;5133061;27;20436;-83
2022/03/29 11:39:26;;;;;;;28.53;16.47;;;21.90;34.00;;;;;;5131544;27;20457;-84
2022/03/29 11:41:54;;;;;;;30.30;15.47;;;21.90;33.60;;;;;;5130766;27;20791;-84
2022/03/29 11:44:23;;;;;;;28.20;15.27;;;21.80;33.80;;;;;;5132303;27;20449;-84
2022/03/29 11:46:52;;;;;;;22.07;14.37;;;21.90;33.90;;;;;;5133437;27;20703;-84
2022/03/29 11:49:20;;;;;;;30.63;16.30;;;22.10;34.50;;;;;;5113461;27;20481;-85
2022/03/29 11:52:05;;;;;;;24.00;15.00;;;22.30;33.70;;;;;;5129828;27;20913;-81
2022/03/29 11:54:39;;;;;;;31.07;14.73;;;22.50;33.60;;;;;;5128937;27;21044;-84
2022/03/29 11:57:18;;;;;;;26.77;15.70;;;22.20;33.10;;;;;;5130551;27;20449;-83
2022/03/29 11:59:45;;;;;;;25.80;16.00;;;21.70;33.40;;;;;;5113514;27;21009;-84
2022/03/29 12:02:12;;;;;;;27.97;15.20;;;21.60;33.70;;;;;;5131402;27;20594;-85
2022/03/29 12:04:40;;;;;;;35.63;17.43;;;21.50;34.10;;;;;;5133374;27;20784;-84
2022/03/29 12:07:07;;;;;;;29.07;15.30;;;21.60;34.30;;;;;;5130597;27;20460;-83
2022/03/29 12:09:35;;;;;;;28.70;16.77;;;21.70;34.30;;;;;;5132546;27;20499;-84
2022/03/29 12:12:03;;;;;;;29.10;15.70;;;21.90;33.90;;;;;;5131365;27;20450;-84
2022/03/29 12:14:32;;;;;;;27.87;16.63;;;21.80;33.40;;;;;;5129475;27;20474;-83
2022/03/29 12:17:04;;;;;;;26.93;15.27;;;21.70;33.50;;;;;;5114607;27;20441;-85
2022/03/29 12:19:32;;;;;;;28.50;15.13;;;21.80;33.80;;;;;;5127867;27;20526;-85
2022/03/29 12:22:01;;;;;;;27.77;16.73;;;22.10;33.00;;;;;;5126679;27;20442;-85
2022/03/29 12:24:32;;;;;;;30.33;15.03;;;22.10;33.00;;;;;;5130553;27;20433;-84
2022/03/29 12:27:04;;;;;;;30.27;14.70;;;22.10;33.40;;;;;;5130331;27;20552;-84
2022/03/29 12:29:33;;;;;;;32.77;16.17;;;22.10;33.60;;;;;;5129221;27;20464;-84
2022/03/29 12:32:02;;;;;;;32.77;16.13;;;22.20;33.20;;;;;;5131050;27;20947;-84
2022/03/29 12:34:31;;;;;;;31.43;15.60;;;22.40;32.70;;;;;;5128773;27;20505;-83
2022/03/29 12:37:00;;;;;;;31.70;16.80;;;22.30;32.60;;;;;;5111319;27;20441;-85
2022/03/29 12:39:33;;;;;;;33.80;17.00;;;22.40;32.90;;;;;;5126651;27;20556;-84
2022/03/29 12:42:01;;;;;;;29.97;15.77;;;22.70;33.00;;;;;;5126818;27;20441;-84
2022/03/29 12:44:32;;;;;;;30.73;17.57;;;23.00;32.50;;;;;;5130419;27;20522;-84
2022/03/29 12:47:00;;;;;;;27.90;16.80;;;23.10;31.80;;;;;;5129494;27;20469;-84